Ryegate, Montana
Current Conditions -  °F | °C
As of 1:55 PM on Tuesday 25 Nov 2014 (Local Time) from KMVH Reporting Station
Overcast Overcast  
Wind Chill: 18°   Ceiling: 6000
Heat Index: 30°   Visibility: 9mi
Dew Point: 25°   Wind: 20mph
Humidity: 80%   Direction: 300°WNW
Pressure: 29.95"   Gusts: 25mph
Location:  46.3°N, 109.26°W
Report Text: KMVH 252055Z AUTO 30017G22KT 9SM FEW026 SCT048 OVC060 M01/M04 A2995 RMK A01
Loading
Personal Weather Stations






























Interactive Weather Map New forecast layout! Learn more

10-Day Weather Forecast

Advertisements
Track Severe Weather on mobile